Detall de PIREP

Printer-friendly versionPDF version

[2013/10/20 08:48:00]
Flight IATA:CT2312
Pilot Number:044
Company ICAO:CAT
Aircraft Type:AT72/F
PAX:37
Departing Airport: LIEA
Destination Airport: LIBP
Alternate Airport:LIRF
Online: VATSIM
Route:MINKA L5 ATRUP
Flight Level:F180
No Slew and time accel
No pause
Crash detect
Detect pilot in Cockpit between each 30 and 45 minutes
08:48 Zero fuel Weight: 39663 Lbs, Fuel Weight: 4451 Lbs
08:48 VATSIM:LIEA 200820Z VRB01KT CAVOK 24/18 Q1020
08:48 VATSIM:LIBP 200750Z VRB03KT CAVOK 16/12 Q1025
08:48 VOICE CATALONIAN
08:51 Parking Brakes off
08:58 Take-off
08:58 Take off Weight: 44043 Lbs
08:58 Wind: 109º @ 006 Knots Heading: 026º
08:58 POS N40º 38´ 19´´ E008º 17´ 41´´
08:58 Flaps:1 at 141 Knots
08:58 Gear Up: 142 Knots
08:58 Flaps:0 at 148 Knots
09:10 TOC
09:10 Fuel Weight: 3950 Lb
09:13 Wind:086º@019 Knots Heading: 067º Ground Speed: 264 Knots Altitude 18254 ft
09:28 Wind:098º@011 Knots Heading: 071º Ground Speed: 275 Knots Altitude 18287 ft
09:28 TOD
09:28 Fuel Weight: 3379 Lb
09:29 TOC
09:29 Fuel Weight: 3372 Lb
09:43 Wind:101º@017 Knots Heading: 068º Ground Speed: 273 Knots Altitude 18372 ft
09:54 TOD
09:54 Fuel Weight: 2582 Lb
09:58 Wind:012º@005 Knots Heading: 072º Ground Speed: 233 Knots Altitude 11896 ft
10:08 Flaps:1 at 153 Knots
10:11 Gear Down: 102 Knots
10:12 Flaps:2 at 127 Knots
10:13 Wind:025º@000 Knots Heading: 217º Ground Speed: 115 Knots Altitude 1384 ft
10:15 TouchDown:Rate -265 ft/min Speed: 96 Knots
10:15 VATSIM:LIBP 200950Z VRB03KT CAVOK 22/12 Q1026
10:15 Land
10:15 Wind:025º@001 Knots
10:15 Heading: 218º
10:15 Flight Duration: 01:17
10:15 Landing Weight: 42031 Lbs
10:15 POS N42º 25´ 41´´ E014º 10´ 48´´
10:17 Parking brakes on
10:17 Block to Block Duration: 01:26
10:17 Final Fuel: 2356 Lbls
10:17 Spent Fuel: 2094 Lbls
10:17 Flight Length: 307 NM
10:17 TOD Land Length: 67 NM

Exportar CSV

Powered by Drupal - Modified by Danger4k